Time;durP1;ratioP1;P1;durP2;ratioP2;P2;SDS_P1;SDS_P2;PMS_P1;PMS_P2;Temp;Humidity;BMP_temperature;BMP_pressure;BME280_temperature;BME280_humidity;BME280_pressure;Samples;Min_cycle;Max_cycle;Signal;HPM_P1;HPM_P2
2023/04/27 00:00:44;;;;;;;9.95;3.72;;;4.00;99.90;;;;;;5050948;28;20036;-74
2023/04/27 00:03:10;;;;;;;6.07;3.40;;;3.90;99.90;;;;;;5034653;28;20131;-74
2023/04/27 00:05:37;;;;;;;6.70;3.60;;;4.10;99.90;;;;;;5051280;28;20483;-74
2023/04/27 00:08:07;;;;;;;6.63;3.72;;;3.90;99.90;;;;;;5051311;28;20402;-74
2023/04/27 00:10:33;;;;;;;6.22;3.95;;;4.00;99.90;;;;;;5034534;28;20047;-74
2023/04/27 00:13:00;;;;;;;10.45;3.92;;;4.50;99.90;;;;;;5050715;28;20037;-74
2023/04/27 00:15:25;;;;;;;;;;;4.00;99.90;;;;;;5051237;28;20059;-74
2023/04/27 00:17:51;;;;;;;7.30;3.67;;;4.30;99.90;;;;;;5034024;28;19916;-74
2023/04/27 00:20:17;;;;;;;6.87;4.10;;;4.00;99.90;;;;;;5034355;28;20033;-74
2023/04/27 00:22:43;;;;;;;11.20;4.00;;;4.00;99.90;;;;;;5050293;28;20116;-74
2023/04/27 00:25:09;;;;;;;7.53;3.90;;;4.30;99.90;;;;;;5034044;28;20044;-74
2023/04/27 00:27:35;;;;;;;7.85;4.28;;;4.10;99.90;;;;;;5034367;28;20115;-74
2023/04/27 00:30:00;;;;;;;8.95;4.47;;;4.10;99.90;;;;;;5017393;28;20040;-74
2023/04/27 00:32:26;;;;;;;7.65;4.30;;;4.10;99.90;;;;;;5050689;28;20037;-74
2023/04/27 00:34:52;;;;;;;7.05;4.05;;;4.40;99.90;;;;;;5049740;28;20041;-74
2023/04/27 00:37:18;;;;;;;8.70;4.23;;;4.20;99.90;;;;;;5033280;28;20041;-74
2023/04/27 00:39:44;;;;;;;11.05;4.30;;;4.40;99.90;;;;;;5050029;28;20279;-74
2023/04/27 00:42:14;;;;;;;10.82;4.25;;;4.30;99.90;;;;;;5050797;28;20071;-74
2023/04/27 00:44:40;;;;;;;7.70;4.22;;;4.40;99.90;;;;;;5034289;28;20040;-74
2023/04/27 00:47:06;;;;;;;8.07;4.38;;;4.40;99.90;;;;;;5033943;28;20037;-75
2023/04/27 00:49:32;;;;;;;7.65;3.90;;;4.40;99.90;;;;;;5050440;28;20041;-75
2023/04/27 00:51:59;;;;;;;8.40;4.18;;;4.50;99.90;;;;;;5033136;28;20040;-75
2023/04/27 00:54:25;;;;;;;9.98;4.65;;;4.50;99.90;;;;;;5050002;28;20486;-74
2023/04/27 00:56:51;;;;;;;9.05;4.43;;;4.90;99.90;;;;;;5049701;28;20033;-74
2023/04/27 00:59:18;;;;;;;11.25;4.78;;;4.60;99.90;;;;;;5033448;28;20120;-74
2023/04/27 01:01:45;;;;;;;9.13;4.18;;;4.60;99.90;;;;;;5050893;28;20037;-74
2023/04/27 01:04:11;;;;;;;9.48;4.32;;;4.50;99.90;;;;;;5050084;28;20037;-74
2023/04/27 01:06:38;;;;;;;9.27;4.20;;;4.70;99.90;;;;;;5050189;28;20041;-74
2023/04/27 01:09:04;;;;;;;;;;;4.50;99.90;;;;;;5049973;28;20295;-74
2023/04/27 01:11:30;;;;;;;6.53;4.15;;;4.40;99.90;;;;;;5049614;28;19916;-74
2023/04/27 01:13:56;;;;;;;7.95;4.50;;;4.60;99.90;;;;;;5054505;28;20560;-74
2023/04/27 01:16:21;;;;;;;8.07;4.72;;;4.40;99.90;;;;;;5073111;28;20055;-74
2023/04/27 01:18:47;;;;;;;7.57;4.43;;;4.70;99.90;;;;;;5055933;28;20105;-74
2023/04/27 01:21:13;;;;;;;9.20;4.53;;;4.30;99.90;;;;;;5072775;28;20689;-74
2023/04/27 01:23:38;;;;;;;7.22;4.10;;;4.20;99.90;;;;;;5073160;28;20123;-74
2023/04/27 01:26:04;;;;;;;7.87;4.50;;;4.20;99.90;;;;;;5072811;28;20043;-73
2023/04/27 01:28:30;;;;;;;8.33;3.77;;;4.10;99.90;;;;;;5056034;28;20032;-74
2023/04/27 01:30:56;;;;;;;8.55;4.30;;;4.10;99.90;;;;;;5072381;28;20083;-74
2023/04/27 01:33:21;;;;;;;9.53;4.50;;;4.40;99.90;;;;;;5070433;28;20075;-74
2023/04/27 01:35:47;;;;;;;29.00;5.00;;;4.00;99.90;;;;;;5072553;28;20040;-74
2023/04/27 01:38:13;;;;;;;8.93;4.15;;;4.00;99.90;;;;;;5072851;28;20067;-74
2023/04/27 01:40:39;;;;;;;6.70;3.83;;;4.30;99.90;;;;;;5072741;28;20039;-74
2023/04/27 01:43:05;;;;;;;7.93;4.03;;;3.90;99.90;;;;;;5038733;28;20450;-75
2023/04/27 01:45:30;;;;;;;7.88;4.65;;;4.30;99.90;;;;;;5072833;28;20374;-73
2023/04/27 01:47:56;;;;;;;8.68;4.10;;;3.80;99.90;;;;;;5055806;28;20122;-74
2023/04/27 01:50:22;;;;;;;8.73;4.20;;;3.80;99.90;;;;;;5071710;28;20055;-73
2023/04/27 01:52:47;;;;;;;8.93;4.10;;;3.70;99.90;;;;;;5055346;28;20081;-74
2023/04/27 01:55:13;;;;;;;9.07;4.50;;;3.70;99.90;;;;;;5103774;28;20806;-74
2023/04/27 01:57:39;;;;;;;9.50;4.00;;;3.90;99.90;;;;;;5072323;28;20036;-74
2023/04/27 02:00:05;;;;;;;9.95;3.83;;;3.90;99.90;;;;;;5072194;28;20032;-74
2023/04/27 02:02:31;;;;;;;9.68;4.40;;;3.60;99.90;;;;;;5055718;28;20093;-74
2023/04/27 02:04:57;;;;;;;8.82;3.80;;;3.50;99.90;;;;;;5071927;28;20393;-74
2023/04/27 02:07:23;;;;;;;10.80;3.67;;;3.50;99.90;;;;;;5072115;28;20046;-73
2023/04/27 02:09:48;;;;;;;6.50;3.85;;;3.50;99.90;;;;;;5071766;28;20043;-73
2023/04/27 02:12:14;;;;;;;8.75;4.15;;;3.50;99.90;;;;;;5071807;28;20468;-73
2023/04/27 02:14:40;;;;;;;9.47;4.03;;;3.50;99.90;;;;;;5071828;28;20094;-74
2023/04/27 02:17:05;;;;;;;6.97;4.30;;;3.70;99.90;;;;;;5071657;28;20374;-74
2023/04/27 02:19:31;;;;;;;10.97;4.90;;;3.40;99.90;;;;;;5071898;28;20635;-73
2023/04/27 02:21:57;;;;;;;14.70;4.40;;;3.40;99.90;;;;;;5038515;28;20028;-73
2023/04/27 02:24:22;;;;;;;10.23;4.07;;;3.30;99.90;;;;;;5055092;28;20040;-74
2023/04/27 02:26:48;;;;;;;8.57;4.60;;;3.80;99.90;;;;;;5071550;28;20581;-74
2023/04/27 02:29:14;;;;;;;8.90;4.03;;;3.20;99.90;;;;;;5071482;28;20079;-74
2023/04/27 02:31:40;;;;;;;9.73;4.13;;;3.20;99.90;;;;;;5071889;28;20278;-74
2023/04/27 02:34:05;;;;;;;6.53;3.75;;;4.30;99.90;;;;;;5054490;28;20054;-74
2023/04/27 02:36:31;;;;;;;12.10;4.70;;;3.20;99.90;;;;;;5071781;28;20047;-74
2023/04/27 02:38:56;;;;;;;6.63;4.20;;;3.10;99.90;;;;;;5038021;28;20331;-74
2023/04/27 02:41:22;;;;;;;9.87;4.70;;;3.10;99.90;;;;;;5071497;28;20083;-74
2023/04/27 02:43:50;;;;;;;9.93;4.68;;;3.10;99.90;;;;;;5055015;28;20508;-74
2023/04/27 02:46:15;;;;;;;8.73;4.47;;;3.80;99.90;;;;;;5070955;28;20043;-74
2023/04/27 02:48:41;;;;;;;9.07;4.20;;;3.10;99.90;;;;;;5054939;28;20400;-74
2023/04/27 02:51:07;;;;;;;9.87;4.50;;;3.10;99.90;;;;;;5071159;28;20124;-74
2023/04/27 02:53:32;;;;;;;8.60;5.07;;;3.00;99.90;;;;;;5054544;28;20302;-74
2023/04/27 02:55:58;;;;;;;8.70;4.50;;;3.00;99.90;;;;;;5070714;28;20512;-75
2023/04/27 02:58:24;;;;;;;8.95;4.18;;;3.00;99.90;;;;;;5071246;28;20036;-74
2023/04/27 03:00:54;;;;;;;7.75;4.18;;;3.00;99.90;;;;;;5070810;28;20036;-74
2023/04/27 03:03:21;;;;;;;10.48;4.75;;;3.00;99.90;;;;;;5071228;28;20051;-74
2023/04/27 03:05:46;;;;;;;10.88;4.50;;;2.90;99.90;;;;;;5071088;28;20118;-74
2023/04/27 03:08:12;;;;;;;10.38;4.63;;;2.80;99.90;;;;;;5054273;28;20523;-74
2023/04/27 03:10:38;;;;;;;8.48;4.35;;;2.80;99.90;;;;;;5071044;28;20455;-74
2023/04/27 03:13:04;;;;;;;11.33;5.03;;;2.70;99.90;;;;;;5054250;28;20074;-74
2023/04/27 03:15:30;;;;;;;12.18;5.30;;;2.70;99.90;;;;;;5070987;28;20110;-74
2023/04/27 03:17:55;;;;;;;11.15;5.13;;;2.70;99.90;;;;;;5071271;28;20048;-74
2023/04/27 03:20:21;;;;;;;9.68;5.68;;;2.70;99.90;;;;;;5071000;28;20043;-74
2023/04/27 03:22:47;;;;;;;8.75;4.72;;;2.70;99.90;;;;;;5070934;28;20050;-73
2023/04/27 03:25:13;;;;;;;10.70;5.53;;;3.00;99.90;;;;;;5068269;28;20067;-74
2023/04/27 03:27:39;;;;;;;10.57;4.88;;;2.70;99.90;;;;;;5071168;28;20318;-74
2023/04/27 03:30:05;;;;;;;10.03;5.13;;;2.70;99.90;;;;;;5070549;28;20094;-75
2023/04/27 03:32:30;;;;;;;11.52;5.93;;;2.70;99.90;;;;;;5071070;28;20529;-73
2023/04/27 03:34:56;;;;;;;13.60;5.80;;;2.60;99.90;;;;;;5070660;28;20075;-73
2023/04/27 03:37:22;;;;;;;12.90;5.67;;;2.70;99.90;;;;;;5054067;28;20036;-73
2023/04/27 03:39:47;;;;;;;13.47;6.17;;;2.60;99.90;;;;;;5070948;28;20313;-74
2023/04/27 03:42:13;;;;;;;9.77;5.67;;;2.60;99.90;;;;;;5070689;28;20137;-74
2023/04/27 03:44:39;;;;;;;11.60;6.30;;;2.60;99.90;;;;;;5070771;28;20044;-75
2023/04/27 03:47:08;;;;;;;15.32;6.72;;;2.50;99.90;;;;;;5070722;28;20036;-73
2023/04/27 03:49:34;;;;;;;11.98;6.15;;;2.80;99.90;;;;;;5037803;28;20036;-74
2023/04/27 03:52:00;;;;;;;12.13;6.70;;;2.40;99.90;;;;;;5070420;28;20036;-73
2023/04/27 03:54:26;;;;;;;9.07;5.22;;;2.60;99.90;;;;;;5070373;28;20081;-73
2023/04/27 03:56:52;;;;;;;11.83;6.40;;;2.90;99.90;;;;;;5054084;28;20043;-74
2023/04/27 03:59:17;;;;;;;11.47;5.83;;;2.40;99.90;;;;;;5070567;28;20044;-74
2023/04/27 04:01:43;;;;;;;10.70;5.60;;;2.90;99.90;;;;;;5070936;28;20639;-74
2023/04/27 04:04:08;;;;;;;13.43;5.73;;;2.30;99.90;;;;;;5070121;28;20640;-74
2023/04/27 04:06:35;;;;;;;10.53;4.90;;;2.60;99.90;;;;;;5070937;28;20036;-74
2023/04/27 04:09:00;;;;;;;9.02;4.80;;;3.00;99.90;;;;;;5070534;28;20763;-74
2023/04/27 04:11:26;;;;;;;11.45;5.30;;;2.40;99.90;;;;;;5070848;28;20044;-74
2023/04/27 04:13:52;;;;;;;13.00;5.30;;;2.30;99.90;;;;;;5056527;28;20115;-74
2023/04/27 04:16:17;;;;;;;10.98;4.60;;;2.30;99.90;;;;;;5073797;28;20462;-73
2023/04/27 04:18:43;;;;;;;8.83;5.47;;;2.60;99.90;;;;;;5074557;28;20397;-74
2023/04/27 04:21:10;;;;;;;9.68;5.07;;;2.20;99.90;;;;;;5073696;28;20313;-75
2023/04/27 04:23:36;;;;;;;12.05;5.38;;;2.20;99.90;;;;;;5073703;28;20055;-74
2023/04/27 04:26:03;;;;;;;9.75;5.38;;;2.20;99.90;;;;;;5057245;28;20494;-74
2023/04/27 04:28:29;;;;;;;13.93;5.28;;;2.20;99.90;;;;;;5057555;28;20121;-74
2023/04/27 04:30:55;;;;;;;;;;;2.20;99.90;;;;;;5057897;28;20492;-74
2023/04/27 04:33:21;;;;;;;11.60;5.35;;;2.30;99.90;;;;;;5056626;28;19923;-74
2023/04/27 04:35:47;;;;;;;11.23;6.05;;;2.30;99.90;;;;;;5074102;28;20043;-74
2023/04/27 04:38:13;;;;;;;10.35;5.57;;;2.80;99.90;;;;;;5073686;28;20035;-75
2023/04/27 04:40:40;;;;;;;9.10;5.07;;;2.40;99.90;;;;;;5073813;28;20075;-73
2023/04/27 04:43:06;;;;;;;11.75;5.50;;;2.60;99.90;;;;;;5073100;28;20529;-75
2023/04/27 04:45:31;;;;;;;12.55;6.22;;;2.50;99.90;;;;;;5057124;28;20181;-75
2023/04/27 04:47:59;;;;;;;9.70;5.15;;;2.50;99.90;;;;;;5073723;28;20149;-73
2023/04/27 04:50:25;;;;;;;11.68;5.30;;;2.50;99.90;;;;;;5073316;28;20067;-75
2023/04/27 04:52:51;;;;;;;10.77;5.22;;;2.50;99.90;;;;;;5073191;28;20048;-74
2023/04/27 04:55:17;;;;;;;13.20;6.60;;;3.20;99.90;;;;;;5073258;28;20043;-74
2023/04/27 04:57:42;;;;;;;13.27;6.45;;;2.60;99.90;;;;;;5073570;28;20835;-73
2023/04/27 05:00:12;;;;;;;11.23;5.15;;;2.60;99.90;;;;;;5073114;28;20081;-74
2023/04/27 05:02:41;;;;;;;9.50;5.13;;;2.60;99.90;;;;;;5073577;28;20040;-74
2023/04/27 05:05:07;;;;;;;9.60;4.88;;;3.10;99.90;;;;;;5072722;28;20047;-74
2023/04/27 05:07:34;;;;;;;8.60;5.30;;;2.60;99.90;;;;;;5073457;28;20441;-75
2023/04/27 05:09:59;;;;;;;9.45;4.80;;;2.60;99.90;;;;;;5073156;28;20071;-74
2023/04/27 05:12:25;;;;;;;13.60;5.63;;;2.70;99.90;;;;;;5072733;28;20078;-74
2023/04/27 05:14:51;;;;;;;14.85;6.22;;;2.70;99.90;;;;;;5073067;28;20117;-73
2023/04/27 05:17:17;;;;;;;10.85;5.78;;;2.70;99.90;;;;;;5072794;28;20055;-74
2023/04/27 05:19:43;;;;;;;7.97;5.15;;;2.80;99.90;;;;;;5072835;28;20032;-74
2023/04/27 05:22:09;;;;;;;10.80;5.15;;;2.90;99.90;;;;;;5056090;28;20049;-74
2023/04/27 05:24:35;;;;;;;12.40;5.68;;;3.00;99.90;;;;;;5072783;28;20127;-75
2023/04/27 05:27:00;;;;;;;10.67;5.03;;;3.10;99.90;;;;;;5073068;28;20139;-74
2023/04/27 05:29:26;;;;;;;10.15;5.47;;;3.30;99.90;;;;;;5072277;28;20286;-76
2023/04/27 05:31:55;;;;;;;10.55;5.13;;;3.60;99.90;;;;;;5056205;28;20504;-75
2023/04/27 05:34:21;;;;;;;9.50;4.82;;;3.50;99.90;;;;;;5072120;28;20040;-74
2023/04/27 05:36:46;;;;;;;13.83;5.33;;;3.70;99.90;;;;;;5056323;28;20051;-75
2023/04/27 05:39:12;;;;;;;8.52;5.28;;;4.00;99.90;;;;;;5072401;28;20325;-75
2023/04/27 05:41:38;;;;;;;10.70;4.78;;;4.60;99.90;;;;;;5073002;28;20036;-75
2023/04/27 05:44:05;;;;;;;12.93;4.88;;;4.20;99.90;;;;;;5072833;28;20493;-75
2023/04/27 05:46:31;;;;;;;13.48;5.03;;;4.30;99.90;;;;;;5072232;28;20188;-73
2023/04/27 05:48:57;;;;;;;10.52;5.00;;;4.30;99.90;;;;;;5072269;28;20509;-74
2023/04/27 05:51:22;;;;;;;8.90;4.30;;;4.90;99.90;;;;;;5072245;28;20044;-74
2023/04/27 05:53:48;;;;;;;7.93;4.50;;;4.60;99.90;;;;;;5055981;28;20040;-74
2023/04/27 05:56:14;;;;;;;9.77;4.53;;;4.70;99.90;;;;;;5039457;28;20036;-75
2023/04/27 05:58:40;;;;;;;6.17;3.73;;;4.90;99.90;;;;;;5072582;28;20293;-74
2023/04/27 06:01:07;;;;;;;7.43;3.88;;;5.10;99.90;;;;;;5072536;28;20050;-74
2023/04/27 06:03:32;;;;;;;6.00;3.60;;;5.30;99.90;;;;;;5072376;28;20539;-75
2023/04/27 06:06:00;;;;;;;7.40;3.53;;;5.50;99.90;;;;;;5055680;28;20039;-75
2023/04/27 06:08:26;;;;;;;6.45;3.47;;;5.50;99.90;;;;;;5072268;28;20759;-75
2023/04/27 06:10:53;;;;;;;5.95;3.50;;;6.10;99.90;;;;;;5072536;28;20043;-75
2023/04/27 06:13:19;;;;;;;8.63;3.40;;;6.00;99.90;;;;;;5055334;28;20047;-75
2023/04/27 06:15:45;;;;;;;7.53;3.53;;;6.20;99.90;;;;;;5072114;28;20048;-75
2023/04/27 06:18:12;;;;;;;6.20;3.28;;;6.40;99.90;;;;;;5055515;28;20394;-74
2023/04/27 06:20:37;;;;;;;7.57;3.55;;;6.40;99.90;;;;;;5071872;28;20122;-74
2023/04/27 06:23:04;;;;;;;5.93;3.47;;;6.60;99.90;;;;;;5070032;28;20035;-75
2023/04/27 06:25:29;;;;;;;7.90;4.07;;;6.90;99.90;;;;;;5071716;28;20051;-75
2023/04/27 06:27:56;;;;;;;6.30;2.75;;;7.40;99.90;;;;;;5055373;28;20031;-75
2023/04/27 06:30:23;;;;;;;5.65;2.78;;;8.00;99.90;;;;;;5071478;28;21019;-74
2023/04/27 06:32:50;;;;;;;6.88;2.95;;;8.60;99.90;;;;;;5072295;28;20061;-73
2023/04/27 06:35:17;;;;;;;3.97;2.33;;;9.00;99.90;;;;;;5054014;28;20111;-74
2023/04/27 06:37:43;;;;;;;3.88;1.92;;;9.40;99.90;;;;;;5071141;28;20063;-75
2023/04/27 06:40:09;;;;;;;;;;;9.80;99.90;;;;;;5072308;28;20094;-73
2023/04/27 06:42:35;;;;;;;5.38;2.20;;;10.10;99.90;;;;;;5071558;28;19985;-74
2023/04/27 06:45:01;;;;;;;2.40;1.50;;;10.40;99.90;;;;;;5070584;28;20040;-75
2023/04/27 06:47:27;;;;;;;4.75;2.00;;;10.60;99.90;;;;;;5054784;28;20031;-75
2023/04/27 06:49:53;;;;;;;3.50;1.70;;;10.90;99.90;;;;;;5071808;28;20036;-75
2023/04/27 06:52:18;;;;;;;7.15;1.80;;;11.10;99.90;;;;;;5071557;28;20373;-74
2023/04/27 06:54:44;;;;;;;6.35;2.15;;;11.40;99.90;;;;;;5071569;28;20047;-75
2023/04/27 06:57:10;;;;;;;3.28;1.60;;;11.70;99.90;;;;;;5071619;28;20077;-74
2023/04/27 06:59:35;;;;;;;3.00;1.58;;;11.80;99.90;;;;;;5071040;28;20086;-74
2023/04/27 07:02:02;;;;;;;3.20;1.55;;;11.70;99.90;;;;;;5038296;28;20036;-74
2023/04/27 07:04:27;;;;;;;5.95;1.60;;;11.80;99.90;;;;;;5071333;28;20047;-74
2023/04/27 07:06:54;;;;;;;4.10;1.50;;;11.90;99.90;;;;;;5071963;28;20040;-74
2023/04/27 07:09:20;;;;;;;2.22;1.45;;;12.20;99.90;;;;;;5089787;28;20040;-75
2023/04/27 07:11:46;;;;;;;4.43;1.60;;;12.40;99.90;;;;;;5071513;28;20474;-75
2023/04/27 07:14:12;;;;;;;3.28;1.40;;;12.50;99.90;;;;;;5071119;28;20718;-73
2023/04/27 07:16:38;;;;;;;4.82;1.70;;;12.60;99.90;;;;;;5071134;28;20044;-74
2023/04/27 07:19:03;;;;;;;3.33;1.35;;;12.80;99.90;;;;;;5071428;28;20036;-74
2023/04/27 07:21:29;;;;;;;1.95;1.40;;;12.70;99.90;;;;;;5071149;28;20430;-74
2023/04/27 07:23:55;;;;;;;5.28;1.63;;;12.90;99.90;;;;;;5071467;28;20047;-75
2023/04/27 07:26:23;;;;;;;6.28;1.90;;;12.80;99.90;;;;;;5071690;28;20048;-74
2023/04/27 07:28:49;;;;;;;5.70;1.52;;;12.80;99.90;;;;;;5071080;28;20105;-74
2023/04/27 07:31:15;;;;;;;4.18;1.67;;;12.80;99.90;;;;;;5054746;28;20443;-74
2023/04/27 07:33:41;;;;;;;2.47;1.58;;;12.80;99.90;;;;;;5070981;28;20122;-74
2023/04/27 07:36:07;;;;;;;3.17;1.50;;;12.90;99.90;;;;;;5071742;28;20027;-74
2023/04/27 07:38:33;;;;;;;3.33;1.35;;;13.20;99.90;;;;;;5070971;28;20040;-74
2023/04/27 07:41:04;;;;;;;4.90;1.50;;;13.40;99.90;;;;;;5055292;28;20081;-74
2023/04/27 07:43:34;;;;;;;5.03;1.52;;;13.70;99.90;;;;;;5071415;28;20405;-74
2023/04/27 07:46:00;;;;;;;2.83;1.15;;;13.90;99.90;;;;;;5071903;28;20408;-74
2023/04/27 07:48:27;;;;;;;4.30;1.40;;;14.00;99.90;;;;;;5056743;28;20043;-75
2023/04/27 07:50:53;;;;;;;3.50;1.35;;;14.00;99.90;;;;;;5075913;28;20461;-74
2023/04/27 07:53:19;;;;;;;6.00;1.50;;;14.00;99.90;;;;;;5042397;28;20043;-74
2023/04/27 07:55:45;;;;;;;2.08;0.98;;;13.80;99.90;;;;;;5075407;28;20405;-74
2023/04/27 07:58:12;;;;;;;2.17;1.00;;;13.70;99.90;;;;;;5075331;28;20035;-75
2023/04/27 08:00:37;;;;;;;;;;;13.80;99.90;;;;;;5075327;28;20032;-75
2023/04/27 08:03:03;;;;;;;2.20;0.90;;;14.00;98.30;;;;;;5075508;28;20297;-74
2023/04/27 08:05:29;;;;;;;1.75;0.73;;;14.40;98.70;;;;;;5075081;28;20043;-75
2023/04/27 08:07:54;;;;;;;4.80;1.20;;;14.60;98.60;;;;;;5058565;28;20047;-75
2023/04/27 08:10:20;;;;;;;1.95;0.90;;;14.40;97.70;;;;;;5058777;28;20036;-75
2023/04/27 08:12:46;;;;;;;2.78;1.20;;;14.20;98.40;;;;;;5074681;28;20044;-74
2023/04/27 08:15:12;;;;;;;4.18;1.20;;;14.30;98.40;;;;;;5062387;28;20041;-75
2023/04/27 08:17:42;;;;;;;2.13;1.30;;;14.30;99.20;;;;;;5034779;28;20040;-74
2023/04/27 08:20:10;;;;;;;3.67;1.25;;;14.50;99.30;;;;;;5034820;28;20065;-74
2023/04/27 08:22:40;;;;;;;2.22;1.10;;;14.80;98.20;;;;;;5051165;28;20118;-74
2023/04/27 08:25:07;;;;;;;2.75;1.20;;;15.00;97.90;;;;;;5051495;28;20049;-75
2023/04/27 08:27:36;;;;;;;1.95;1.02;;;15.30;97.30;;;;;;5051447;28;20080;-75
2023/04/27 08:30:02;;;;;;;3.53;1.40;;;15.50;96.50;;;;;;5051501;28;20045;-75
2023/04/27 08:32:28;;;;;;;4.50;1.20;;;15.60;96.10;;;;;;5051315;28;20033;-75
2023/04/27 08:34:54;;;;;;;4.85;1.23;;;15.80;96.30;;;;;;5034986;28;20462;-75
2023/04/27 08:37:20;;;;;;;2.58;1.20;;;15.90;96.20;;;;;;5051683;28;20041;-75
2023/04/27 08:39:46;;;;;;;4.88;1.38;;;16.10;94.80;;;;;;5050568;28;20076;-74
2023/04/27 08:42:13;;;;;;;3.00;1.55;;;16.10;94.10;;;;;;5051175;28;20059;-75
2023/04/27 08:44:42;;;;;;;1.98;1.20;;;16.30;93.10;;;;;;5034445;28;20335;-75
2023/04/27 08:47:09;;;;;;;4.55;1.27;;;16.60;94.90;;;;;;5051484;28;20490;-75
2023/04/27 08:49:37;;;;;;;2.72;1.20;;;16.90;93.30;;;;;;5033968;28;20048;-75
2023/04/27 08:52:08;;;;;;;1.90;1.15;;;16.80;92.40;;;;;;5050741;28;20041;-76
2023/04/27 08:54:35;;;;;;;3.58;1.27;;;16.80;92.50;;;;;;5050464;28;20048;-75
2023/04/27 08:57:02;;;;;;;3.58;1.27;;;16.70;91.20;;;;;;5034411;28;20536;-76
2023/04/27 08:59:27;;;;;;;3.35;1.42;;;16.70;92.20;;;;;;5050436;28;20064;-75
2023/04/27 09:01:53;;;;;;;4.57;1.17;;;16.70;91.20;;;;;;5033609;28;20037;-75
2023/04/27 09:04:19;;;;;;;2.00;1.38;;;16.50;91.80;;;;;;5034090;28;20056;-75
2023/04/27 09:06:45;;;;;;;3.45;1.45;;;16.40;91.50;;;;;;5033692;28;20098;-75
2023/04/27 09:09:22;;;;;;;3.70;1.50;;;16.30;92.40;;;;;;5034423;28;20049;-75
2023/04/27 09:11:48;;;;;;;4.47;1.42;;;16.30;92.20;;;;;;5017310;28;20406;-74
2023/04/27 09:14:22;;;;;;;2.67;1.00;;;16.30;91.50;;;;;;5051647;28;20099;-77
2023/04/27 09:16:58;;;;;;;3.78;1.80;;;16.70;91.90;;;;;;5073298;28;20505;-76
2023/04/27 09:19:29;;;;;;;7.43;1.80;;;16.80;91.70;;;;;;5073163;28;20132;-75
2023/04/27 09:22:09;;;;;;;3.55;1.30;;;17.10;92.50;;;;;;5072173;28;20040;-76
2023/04/27 09:24:36;;;;;;;4.07;1.30;;;17.20;91.60;;;;;;5072619;28;20039;-75
2023/04/27 09:27:03;;;;;;;2.40;1.65;;;17.30;91.60;;;;;;5072177;28;20044;-77
2023/04/27 09:29:34;;;;;;;3.75;2.10;;;17.50;91.50;;;;;;5072593;28;20036;-76
2023/04/27 09:32:00;;;;;;;5.10;1.70;;;18.00;91.60;;;;;;5055478;28;20040;-76
2023/04/27 09:34:25;;;;;;;6.65;2.25;;;18.10;90.40;;;;;;5072577;28;20039;-76
2023/04/27 09:36:52;;;;;;;8.10;2.70;;;18.30;90.30;;;;;;5054744;28;20044;-77
2023/04/27 09:39:19;;;;;;;;;;;18.40;90.30;;;;;;5072716;28;20557;-76
2023/04/27 09:41:45;;;;;;;4.82;2.10;;;18.40;90.80;;;;;;5072274;28;20353;-75
2023/04/27 09:44:13;;;;;;;3.03;1.55;;;18.60;90.00;;;;;;5070795;28;20051;-76
2023/04/27 09:46:40;;;;;;;4.18;2.05;;;18.80;90.60;;;;;;5054694;28;20075;-76
2023/04/27 09:49:06;;;;;;;5.70;2.30;;;19.10;89.50;;;;;;5072119;28;20082;-76
2023/04/27 09:51:32;;;;;;;4.22;2.25;;;18.90;89.40;;;;;;5055810;28;20047;-75
2023/04/27 09:54:01;;;;;;;4.03;2.00;;;18.90;89.10;;;;;;5071974;28;20065;-75
2023/04/27 09:56:52;;;;;;;3.10;2.00;;;18.60;90.10;;;;;;5072349;28;20062;-74
2023/04/27 09:59:52;;;;;;;5.57;2.17;;;18.70;87.70;;;;;;5071367;28;20481;-75
2023/04/27 10:02:20;;;;;;;8.57;2.78;;;18.20;90.30;;;;;;5095124;28;20097;-74
2023/04/27 10:04:55;;;;;;;6.03;2.63;;;17.60;90.20;;;;;;5055029;28;20485;-75
2023/04/27 10:07:21;;;;;;;3.92;2.20;;;17.60;90.10;;;;;;5071636;28;20043;-75
2023/04/27 10:09:50;;;;;;;6.65;2.50;;;17.00;91.10;;;;;;5037636;28;20478;-75
2023/04/27 10:12:21;;;;;;;5.35;2.40;;;16.90;90.80;;;;;;5054846;28;20478;-75
2023/04/27 10:14:51;;;;;;;3.45;2.35;;;16.60;91.30;;;;;;5070855;28;20047;-75
2023/04/27 10:17:32;;;;;;;4.85;2.88;;;16.40;91.00;;;;;;5071338;28;20078;-75
2023/04/27 10:20:03;;;;;;;4.72;2.47;;;16.00;91.20;;;;;;5083359;28;20102;-76
2023/04/27 10:22:40;;;;;;;5.60;3.20;;;16.00;91.10;;;;;;5071769;28;20039;-77
2023/04/27 10:25:39;;;;;;;4.15;2.70;;;16.10;91.40;;;;;;5071897;28;20047;-75
2023/04/27 10:28:06;;;;;;;5.35;2.72;;;15.70;90.70;;;;;;5071016;28;20121;-75
2023/04/27 10:30:37;;;;;;;4.57;2.85;;;15.70;91.30;;;;;;5055387;28;20488;-75
2023/04/27 10:33:06;;;;;;;5.88;2.88;;;15.60;92.40;;;;;;5070942;28;20102;-75
2023/04/27 10:35:53;;;;;;;5.32;2.90;;;15.70;92.10;;;;;;5060419;28;20039;-78
2023/04/27 10:38:21;;;;;;;7.47;3.22;;;15.70;92.20;;;;;;5063807;28;20047;-76
2023/04/27 10:41:02;;;;;;;5.45;2.80;;;15.40;92.20;;;;;;5063153;28;20062;-76
2023/04/27 10:43:33;;;;;;;7.10;2.83;;;15.60;91.90;;;;;;5063636;28;20363;-75
2023/04/27 10:46:12;;;;;;;4.88;2.65;;;15.80;92.10;;;;;;5063880;28;20039;-76
2023/04/27 10:48:39;;;;;;;5.28;2.60;;;15.80;91.00;;;;;;5062136;28;20039;-77
2023/04/27 10:51:07;;;;;;;4.95;2.92;;;16.00;92.00;;;;;;5061159;28;20040;-76
2023/04/27 10:53:36;;;;;;;6.70;2.88;;;16.10;91.30;;;;;;5059267;28;20048;-77
2023/04/27 10:56:05;;;;;;;9.77;3.13;;;16.40;91.00;;;;;;5052542;28;20044;-75
2023/04/27 10:58:32;;;;;;;6.55;2.70;;;15.90;90.40;;;;;;5054329;28;20108;-74
2023/04/27 11:00:58;;;;;;;6.43;2.70;;;15.80;92.20;;;;;;5070649;28;20924;-74
2023/04/27 11:03:24;;;;;;;5.68;2.72;;;15.80;91.80;;;;;;5071165;28;20499;-75
2023/04/27 11:06:00;;;;;;;6.55;3.00;;;15.90;92.20;;;;;;5070848;28;20040;-75
2023/04/27 11:08:26;;;;;;;5.65;2.88;;;16.10;90.70;;;;;;5071392;28;20080;-74
2023/04/27 11:10:51;;;;;;;5.13;2.70;;;16.10;91.00;;;;;;5070620;28;20040;-74
2023/04/27 11:13:22;;;;;;;4.30;2.80;;;16.10;90.90;;;;;;5070415;28;20040;-76
2023/04/27 11:15:51;;;;;;;6.32;2.83;;;16.20;90.80;;;;;;5077463;28;20048;-76
2023/04/27 11:18:20;;;;;;;5.78;2.80;;;16.30;90.50;;;;;;5053873;28;20097;-75
2023/04/27 11:20:51;;;;;;;6.20;2.85;;;16.10;90.60;;;;;;5059396;28;20516;-75
2023/04/27 11:23:27;;;;;;;5.10;2.85;;;16.60;91.70;;;;;;5053806;28;20097;-76
2023/04/27 11:25:54;;;;;;;6.82;3.42;;;16.70;90.50;;;;;;5057708;28;20055;-75
2023/04/27 11:28:22;;;;;;;5.78;3.30;;;16.70;91.40;;;;;;5075330;28;20068;-75
2023/04/27 11:30:55;;;;;;;5.25;2.70;;;16.60;91.60;;;;;;5075327;28;20123;-75
2023/04/27 11:33:21;;;;;;;5.50;2.80;;;16.50;91.40;;;;;;5042539;28;20075;-75
2023/04/27 11:35:47;;;;;;;5.90;2.88;;;16.30;91.50;;;;;;5073393;28;20928;-75
2023/04/27 11:38:17;;;;;;;6.80;3.10;;;16.30;91.80;;;;;;5075770;28;20036;-75
2023/04/27 11:40:57;;;;;;;9.32;3.03;;;16.30;91.50;;;;;;5075637;28;20031;-76
2023/04/27 11:43:25;;;;;;;6.85;3.13;;;16.20;91.90;;;;;;5059133;28;20032;-76
2023/04/27 11:45:52;;;;;;;4.18;3.08;;;15.80;91.60;;;;;;5075303;28;20074;-75
2023/04/27 11:48:18;;;;;;;4.85;3.22;;;15.60;91.50;;;;;;5075395;28;20048;-75
2023/04/27 11:50:49;;;;;;;5.50;3.00;;;15.60;91.70;;;;;;5042250;28;20042;-75
2023/04/27 11:53:15;;;;;;;5.70;3.00;;;15.50;92.70;;;;;;5075429;28;20079;-75
2023/04/27 11:55:42;;;;;;;6.43;3.20;;;15.20;92.90;;;;;;5075450;28;20043;-74
2023/04/27 11:58:13;;;;;;;5.18;3.20;;;15.10;92.70;;;;;;5075470;28;20044;-75
2023/04/27 12:00:39;;;;;;;5.80;3.35;;;15.00;92.20;;;;;;5075491;28;20093;-75
2023/04/27 12:03:05;;;;;;;9.95;4.03;;;15.00;94.00;;;;;;5042124;28;20451;-76
2023/04/27 12:05:31;;;;;;;9.02;3.63;;;15.00;93.10;;;;;;5058708;28;20043;-75
2023/04/27 12:07:57;;;;;;;6.90;3.90;;;14.80;93.10;;;;;;5074781;28;20040;-76
2023/04/27 12:10:23;;;;;;;6.72;4.18;;;14.70;92.60;;;;;;5041841;28;20043;-75
2023/04/27 12:12:49;;;;;;;7.78;4.07;;;14.60;92.60;;;;;;5058293;28;20527;-75
2023/04/27 12:15:15;;;;;;;8.25;3.60;;;14.60;92.70;;;;;;5058209;28;20079;-75
2023/04/27 12:17:41;;;;;;;9.23;3.88;;;14.40;92.60;;;;;;5075001;28;20037;-75
2023/04/27 12:20:07;;;;;;;7.03;3.30;;;14.40;93.20;;;;;;5074465;28;20032;-75
2023/04/27 12:22:32;;;;;;;;;;;14.30;93.70;;;;;;5075774;28;20371;-75
2023/04/27 12:24:58;;;;;;;6.55;2.70;;;13.90;97.40;;;;;;5074469;28;19916;-75
2023/04/27 12:27:25;;;;;;;5.10;2.60;;;13.60;98.60;;;;;;5074831;28;20066;-75
2023/04/27 12:29:53;;;;;;;4.15;2.72;;;13.50;99.30;;;;;;5074674;28;20405;-75
2023/04/27 12:32:19;;;;;;;4.65;2.65;;;13.40;99.90;;;;;;5075114;28;20071;-75
2023/04/27 12:34:45;;;;;;;7.25;3.00;;;13.40;99.90;;;;;;5057040;28;20120;-75
2023/04/27 12:37:11;;;;;;;5.20;2.63;;;13.50;99.90;;;;;;5074415;28;20036;-75
2023/04/27 12:39:37;;;;;;;6.32;2.78;;;13.60;99.60;;;;;;5058377;28;20457;-75
2023/04/27 12:42:03;;;;;;;6.68;3.05;;;14.00;99.90;;;;;;5074017;28;20090;-75
2023/04/27 12:44:29;;;;;;;5.70;2.72;;;14.30;99.90;;;;;;5074797;28;20064;-75
2023/04/27 12:46:55;;;;;;;6.78;2.58;;;14.60;99.70;;;;;;5074233;28;20036;-76
2023/04/27 12:49:21;;;;;;;5.18;2.60;;;15.10;98.70;;;;;;5057903;28;20094;-75
2023/04/27 12:51:50;;;;;;;3.40;2.67;;;15.20;97.90;;;;;;5074475;28;20050;-76